Time;durP1;ratioP1;P1;durP2;ratioP2;P2;SDS_P1;SDS_P2;PMS_P1;PMS_P2;Temp;Humidity;BMP_temperature;BMP_pressure;BME280_temperature;BME280_humidity;BME280_pressure;Samples;Min_cycle;Max_cycle;Signal;HPM_P1;HPM_P2
2022/08/16 00:01:54;;;;;;;8.90;7.87;;;-8.00;99.90;;;;;;5078035;28;20217;-69
2022/08/16 00:04:20;;;;;;;8.90;7.97;;;-10.20;99.90;;;;;;5083219;28;20270;-74
2022/08/16 00:06:46;;;;;;;7.30;6.80;;;-8.80;99.90;;;;;;5076994;28;20325;-68
2022/08/16 00:09:12;;;;;;;8.33;7.73;;;-9.40;99.90;;;;;;5077640;28;20222;-72
2022/08/16 00:11:40;;;;;;;8.90;8.20;;;-7.00;99.90;;;;;;5077613;28;20175;-70
2022/08/16 00:14:10;;;;;;;9.47;8.37;;;-9.20;99.90;;;;;;5076543;28;20189;-69
2022/08/16 00:16:36;;;;;;;9.17;7.77;;;-8.30;99.90;;;;;;5077065;28;20664;-70
2022/08/16 00:19:03;;;;;;;7.63;7.07;;;-8.60;99.90;;;;;;5078914;28;20176;-68
2022/08/16 00:21:30;;;;;;;9.37;8.57;;;-9.40;99.90;;;;;;5077346;28;20177;-69
2022/08/16 00:23:56;;;;;;;9.37;8.67;;;-6.50;99.90;;;;;;5077356;28;20178;-69
2022/08/16 00:26:22;;;;;;;9.47;8.63;;;-6.90;99.90;;;;;;5077624;28;20625;-69
2022/08/16 00:28:48;;;;;;;9.20;8.37;;;-6.50;99.90;;;;;;5076629;28;20183;-75
2022/08/16 00:31:14;;;;;;;9.93;8.97;;;-6.90;99.90;;;;;;5076737;28;20184;-69
2022/08/16 00:33:40;;;;;;;9.30;8.50;;;-7.20;99.90;;;;;;5076896;28;20269;-70
2022/08/16 00:36:06;;;;;;;9.80;8.87;;;-8.60;99.90;;;;;;5076378;28;20229;-70
2022/08/16 00:38:32;;;;;;;13.23;8.70;;;-6.00;99.90;;;;;;5080680;28;20675;-69
2022/08/16 00:40:59;;;;;;;11.13;9.03;;;-7.50;99.90;;;;;;5076495;28;20586;-74
2022/08/16 00:43:34;;;;;;;10.07;8.50;;;-9.20;99.90;;;;;;5077124;28;20175;-71
2022/08/16 00:46:26;;;;;;;8.50;7.80;;;-10.30;99.90;;;;;;5077278;28;20258;-69
2022/08/16 00:48:53;;;;;;;8.50;7.80;;;-9.60;99.90;;;;;;5076770;28;20578;-74
2022/08/16 00:51:22;;;;;;;8.57;7.30;;;-7.90;99.90;;;;;;5082421;28;20274;-74
2022/08/16 00:53:50;;;;;;;8.93;7.23;;;-6.90;99.90;;;;;;5076335;28;20229;-80
2022/08/16 00:56:23;;;;;;;8.13;7.47;;;-7.90;99.90;;;;;;5076527;28;20202;-73
2022/08/16 00:58:49;;;;;;;10.27;7.63;;;-9.90;99.90;;;;;;5076471;28;20582;-75
2022/08/16 01:01:17;;;;;;;8.37;7.47;;;-8.30;99.90;;;;;;5076438;28;20175;-71
2022/08/16 01:03:47;;;;;;;7.47;6.97;;;-7.40;99.90;;;;;;5075857;28;20217;-74
2022/08/16 01:06:14;;;;;;;9.07;8.23;;;-7.80;99.90;;;;;;5076810;28;20179;-69
2022/08/16 01:08:43;;;;;;;8.53;7.80;;;-7.20;99.90;;;;;;5083608;28;20183;-76
2022/08/16 01:11:09;;;;;;;8.07;6.93;;;-7.90;99.90;;;;;;5076449;28;20184;-73
2022/08/16 01:13:38;;;;;;;8.00;7.37;;;-10.40;99.90;;;;;;5075865;28;20225;-72
2022/08/16 01:16:14;;;;;;;7.13;6.57;;;-7.60;99.90;;;;;;5076269;28;20314;-75
2022/08/16 01:18:45;;;;;;;6.50;6.00;;;-6.60;99.90;;;;;;5075482;28;20201;-71
2022/08/16 01:21:22;;;;;;;7.93;7.30;;;-6.50;99.90;;;;;;5076663;28;20183;-75
2022/08/16 01:24:22;;;;;;;8.33;7.10;;;-6.00;99.90;;;;;;5077221;28;20210;-77
2022/08/16 01:26:50;;;;;;;7.60;7.10;;;-7.20;99.90;;;;;;5076832;28;20183;-77
2022/08/16 01:29:21;;;;;;;7.63;7.03;;;-8.70;99.90;;;;;;5075635;28;20594;-69
2022/08/16 01:31:48;;;;;;;7.23;6.57;;;-7.30;99.90;;;;;;5075420;28;20179;-76
2022/08/16 01:34:16;;;;;;;6.87;6.37;;;-5.30;99.90;;;;;;5082207;28;20190;-69
2022/08/16 01:36:42;;;;;;;12.73;8.23;;;-5.80;99.90;;;;;;5077051;28;20203;-76
2022/08/16 01:39:14;;;;;;;8.20;7.37;;;-5.50;99.90;;;;;;5075570;28;20186;-77
2022/08/16 01:41:40;;;;;;;7.47;6.97;;;-6.00;99.90;;;;;;5077084;28;20258;-72
2022/08/16 01:44:07;;;;;;;7.87;6.63;;;-5.80;99.90;;;;;;5074965;28;20172;-75
2022/08/16 01:46:42;;;;;;;8.40;6.13;;;-7.40;99.90;;;;;;5075683;28;20595;-79
2022/08/16 01:49:21;;;;;;;6.73;6.13;;;-7.40;99.90;;;;;;5076249;28;20189;-77
2022/08/16 01:51:52;;;;;;;8.67;7.80;;;-7.50;99.90;;;;;;5083637;28;20182;-79
2022/08/16 01:54:18;;;;;;;7.07;6.47;;;-5.50;99.90;;;;;;5079893;28;20589;-79
2022/08/16 01:56:44;;;;;;;7.37;6.80;;;-7.20;99.90;;;;;;5079722;28;20245;-78
2022/08/16 01:59:13;;;;;;;7.67;6.93;;;-8.00;99.90;;;;;;5078690;28;20198;-79
2022/08/16 02:01:39;;;;;;;8.57;7.00;;;-8.60;99.90;;;;;;5078972;28;20172;-75
2022/08/16 02:04:06;;;;;;;6.13;5.43;;;-8.70;99.90;;;;;;5078738;28;20203;-77
2022/08/16 02:06:33;;;;;;;7.30;6.60;;;-8.60;99.90;;;;;;5079479;28;20179;-75
2022/08/16 02:08:59;;;;;;;7.93;7.17;;;-7.30;99.90;;;;;;5078978;28;20214;-78
2022/08/16 02:11:26;;;;;;;7.60;6.30;;;-6.60;99.90;;;;;;5083735;28;20691;-78
2022/08/16 02:13:52;;;;;;;7.03;6.17;;;-5.50;99.90;;;;;;5079540;28;20190;-75
2022/08/16 02:16:18;;;;;;;6.70;6.10;;;-6.30;99.90;;;;;;5085380;28;20280;-76
2022/08/16 02:18:44;;;;;;;7.13;6.53;;;-8.50;99.90;;;;;;5082182;28;20176;-68
2022/08/16 02:21:12;;;;;;;7.30;6.77;;;-7.80;99.90;;;;;;5079263;28;20179;-71
2022/08/16 02:23:39;;;;;;;8.67;8.17;;;-6.80;99.90;;;;;;5079487;28;20260;-72
2022/08/16 02:26:05;;;;;;;8.70;7.80;;;-7.10;99.90;;;;;;5079253;28;20179;-77
2022/08/16 02:28:32;;;;;;;8.83;8.03;;;-6.70;99.90;;;;;;5079742;28;20180;-72
2022/08/16 02:31:01;;;;;;;8.90;8.10;;;-6.80;99.90;;;;;;5080229;28;20186;-74
2022/08/16 02:33:27;;;;;;;8.13;7.57;;;-7.20;99.90;;;;;;5078368;28;20186;-74
2022/08/16 02:35:53;;;;;;;8.43;7.60;;;-6.90;99.90;;;;;;5085406;28;20203;-69
2022/08/16 02:38:18;;;;;;;8.33;7.73;;;-9.40;99.90;;;;;;5079788;28;20213;-79
2022/08/16 02:40:44;;;;;;;8.00;7.40;;;-10.70;99.90;;;;;;5083736;28;20179;-77
2022/08/16 02:43:10;;;;;;;9.40;8.60;;;-8.00;99.90;;;;;;5079034;28;20704;-69
2022/08/16 02:45:36;;;;;;;8.27;7.57;;;-7.40;99.90;;;;;;5078333;28;20175;-73
2022/08/16 02:48:02;;;;;;;11.33;7.90;;;-8.50;99.90;;;;;;5078631;28;20252;-70
2022/08/16 02:50:28;;;;;;;8.53;7.83;;;-8.60;99.90;;;;;;5078748;28;20195;-74
2022/08/16 02:52:54;;;;;;;7.73;7.03;;;-6.10;99.90;;;;;;5082787;28;20179;-73
2022/08/16 02:55:20;;;;;;;7.93;7.37;;;-6.20;99.90;;;;;;5079365;28;20225;-73
2022/08/16 02:57:46;;;;;;;7.63;7.00;;;-6.60;99.90;;;;;;5077877;28;20214;-73
2022/08/16 03:00:14;;;;;;;8.20;7.47;;;-6.00;99.90;;;;;;5079057;28;20191;-71
2022/08/16 03:02:41;;;;;;;8.53;7.00;;;-7.80;99.90;;;;;;5077216;28;20599;-72
2022/08/16 03:05:10;;;;;;;8.43;7.80;;;-8.40;99.90;;;;;;5078433;28;20226;-70
2022/08/16 03:07:35;;;;;;;7.03;6.37;;;-8.80;99.90;;;;;;5078432;28;20189;-79
2022/08/16 03:10:03;;;;;;;6.93;6.27;;;-7.50;99.90;;;;;;5078919;28;20186;-69
2022/08/16 03:12:28;;;;;;;9.33;7.73;;;-7.60;99.90;;;;;;5084637;28;20194;-69
2022/08/16 03:14:55;;;;;;;6.70;6.20;;;-7.90;99.90;;;;;;5078926;28;20179;-75
2022/08/16 03:17:20;;;;;;;12.33;6.90;;;-7.60;99.90;;;;;;5077337;28;20203;-69
2022/08/16 03:19:46;;;;;;;6.57;5.80;;;-8.40;99.90;;;;;;5078352;28;20316;-71
2022/08/16 03:22:12;;;;;;;7.43;6.83;;;-9.60;99.90;;;;;;5078064;28;20477;-73
2022/08/16 03:24:38;;;;;;;9.00;6.83;;;-10.70;99.90;;;;;;5078895;28;20179;-72
2022/08/16 03:27:04;;;;;;;9.10;6.63;;;-8.90;99.90;;;;;;5078522;28;20179;-77
2022/08/16 03:29:32;;;;;;;7.20;6.13;;;-8.40;99.90;;;;;;5078810;28;20278;-70
2022/08/16 03:32:00;;;;;;;6.93;6.33;;;-8.00;99.90;;;;;;5077528;28;20266;-78
2022/08/16 03:34:26;;;;;;;8.77;7.77;;;-9.20;99.90;;;;;;5077506;28;20182;-69
2022/08/16 03:36:52;;;;;;;8.53;7.90;;;-7.40;99.90;;;;;;5078174;28;20256;-73
2022/08/16 03:39:18;;;;;;;7.60;7.00;;;-7.70;99.90;;;;;;5078425;28;20191;-71
2022/08/16 03:41:44;;;;;;;7.10;6.30;;;-9.50;99.90;;;;;;5077796;28;20575;-78
2022/08/16 03:44:10;;;;;;;7.23;6.63;;;-9.20;99.90;;;;;;5077817;28;20178;-74
2022/08/16 03:46:36;;;;;;;7.47;6.87;;;-8.80;99.90;;;;;;5078566;28;20187;-70
2022/08/16 03:49:03;;;;;;;11.77;7.50;;;-7.60;99.90;;;;;;5084145;28;20251;-73
2022/08/16 03:51:29;;;;;;;7.90;7.33;;;-8.40;99.90;;;;;;5076779;28;20591;-76
2022/08/16 03:53:54;;;;;;;8.67;7.83;;;-7.70;99.90;;;;;;5076931;28;20187;-70
2022/08/16 03:56:20;;;;;;;9.07;8.27;;;-8.70;99.90;;;;;;5077914;28;20514;-75
2022/08/16 03:58:47;;;;;;;8.80;8.13;;;-7.30;99.90;;;;;;5076351;28;20199;-77
2022/08/16 04:01:13;;;;;;;8.87;7.87;;;-7.90;99.90;;;;;;5078022;28;20183;-74
2022/08/16 04:03:39;;;;;;;8.57;7.80;;;-7.80;99.90;;;;;;5077493;28;20609;-72
2022/08/16 04:06:06;;;;;;;9.20;7.90;;;-8.50;99.90;;;;;;5077374;28;20183;-68
2022/08/16 04:08:32;;;;;;;7.90;7.07;;;-8.50;99.90;;;;;;5077236;28;20183;-77
2022/08/16 04:10:58;;;;;;;7.57;6.80;;;-10.00;99.90;;;;;;5077329;28;20518;-69
2022/08/16 04:13:24;;;;;;;9.60;8.30;;;-8.30;99.90;;;;;;5077194;28;20203;-69
2022/08/16 04:15:51;;;;;;;7.97;7.30;;;-10.80;99.90;;;;;;5077721;28;20207;-72
2022/08/16 04:18:17;;;;;;;8.17;7.23;;;-9.10;99.90;;;;;;5077459;28;20640;-74
2022/08/16 04:20:43;;;;;;;6.97;6.37;;;-9.10;99.90;;;;;;5078097;28;20179;-68
2022/08/16 04:23:10;;;;;;;9.17;8.27;;;-9.80;99.90;;;;;;5077481;28;20600;-73
2022/08/16 04:25:36;;;;;;;7.60;7.07;;;-8.10;99.90;;;;;;5077473;28;20248;-80
2022/08/16 04:28:02;;;;;;;7.60;7.07;;;-7.30;99.90;;;;;;5076775;28;20187;-68
2022/08/16 04:30:28;;;;;;;7.93;7.23;;;-8.10;99.90;;;;;;5076775;28;20238;-69
2022/08/16 04:32:54;;;;;;;9.50;8.70;;;-5.90;99.90;;;;;;5076267;28;20549;-70
2022/08/16 04:35:22;;;;;;;10.40;9.43;;;-6.70;99.90;;;;;;5076635;28;20206;-73
2022/08/16 04:37:49;;;;;;;9.87;8.47;;;-6.40;99.90;;;;;;5077369;28;20205;-69
2022/08/16 04:40:17;;;;;;;9.90;8.80;;;-5.40;99.90;;;;;;5076620;28;21333;-71
2022/08/16 04:42:44;;;;;;;15.00;8.50;;;-4.70;99.90;;;;;;5077058;28;20175;-69
2022/08/16 04:45:13;;;;;;;8.87;8.17;;;-5.50;99.90;;;;;;5075336;28;20195;-71
2022/08/16 04:47:40;;;;;;;8.70;7.97;;;-5.00;99.90;;;;;;5076728;28;20183;-71
2022/08/16 04:50:11;;;;;;;8.53;7.93;;;-4.80;99.90;;;;;;5076172;28;20214;-74
2022/08/16 04:52:37;;;;;;;8.83;8.13;;;-4.50;99.90;;;;;;5076665;28;20178;-78
2022/08/16 04:55:15;;;;;;;10.30;9.37;;;-3.90;99.90;;;;;;5076373;28;20183;-75
2022/08/16 04:57:42;;;;;;;10.17;8.60;;;-3.70;99.90;;;;;;5080873;28;20202;-68
2022/08/16 05:00:11;;;;;;;9.53;8.83;;;-4.20;99.90;;;;;;5077089;28;20187;-69
2022/08/16 05:02:38;;;;;;;9.90;9.10;;;-6.40;99.90;;;;;;5076543;28;20182;-69
2022/08/16 05:05:05;;;;;;;10.27;8.93;;;-7.70;99.90;;;;;;5075674;28;20622;-68
2022/08/16 05:07:30;;;;;;;10.23;9.30;;;-7.20;99.90;;;;;;5075339;28;20258;-67
2022/08/16 05:09:56;;;;;;;13.53;9.90;;;-8.40;99.90;;;;;;5076467;28;20317;-69
2022/08/16 05:12:22;;;;;;;10.27;8.17;;;-8.80;99.90;;;;;;5076359;28;20190;-68
2022/08/16 05:14:47;;;;;;;10.17;9.47;;;-8.00;99.90;;;;;;5082780;28;20215;-72
2022/08/16 05:17:13;;;;;;;11.67;9.87;;;-7.50;99.90;;;;;;5077285;28;20202;-68
2022/08/16 05:19:39;;;;;;;13.07;9.67;;;-7.30;99.90;;;;;;5079761;28;20182;-68
2022/08/16 05:22:05;;;;;;;10.60;9.70;;;-7.40;99.90;;;;;;5082189;28;20181;-66
2022/08/16 05:24:31;;;;;;;9.93;8.93;;;-7.80;99.90;;;;;;5087155;28;20191;-69
2022/08/16 05:26:56;;;;;;;9.37;8.10;;;-7.10;99.90;;;;;;5089617;28;20182;-67
2022/08/16 05:29:22;;;;;;;11.53;10.53;;;-7.30;99.90;;;;;;5091988;28;20194;-72
2022/08/16 05:31:48;;;;;;;9.87;8.97;;;-6.70;99.90;;;;;;5087368;28;20182;-72
2022/08/16 05:34:15;;;;;;;9.67;8.77;;;-7.90;99.90;;;;;;5093053;28;20182;-72
2022/08/16 05:36:41;;;;;;;11.30;8.93;;;-10.60;99.90;;;;;;5093370;28;20202;-68
2022/08/16 05:39:08;;;;;;;9.93;9.13;;;-9.00;99.90;;;;;;5091035;28;20647;-69
2022/08/16 05:41:34;;;;;;;11.50;9.03;;;-10.70;99.90;;;;;;5083276;28;20228;-69
2022/08/16 05:44:00;;;;;;;9.27;8.57;;;-11.70;99.90;;;;;;5091135;28;20178;-68
2022/08/16 05:46:26;;;;;;;10.60;8.53;;;-9.50;99.90;;;;;;5080286;28;20263;-67
2022/08/16 05:48:51;;;;;;;8.90;8.10;;;-8.00;99.90;;;;;;5080440;28;20317;-68
2022/08/16 05:51:18;;;;;;;12.07;7.33;;;-8.90;99.90;;;;;;5080292;28;20262;-67
2022/08/16 05:53:44;;;;;;;8.07;7.37;;;-9.00;99.90;;;;;;5080783;28;20553;-71
2022/08/16 05:56:10;;;;;;;9.17;8.37;;;-11.60;99.90;;;;;;5093652;28;20232;-67
2022/08/16 05:58:37;;;;;;;10.37;9.53;;;-9.90;99.90;;;;;;5088195;28;20205;-68
2022/08/16 06:01:03;;;;;;;9.13;8.40;;;-10.20;99.90;;;;;;5080782;28;20183;-66
2022/08/16 06:03:30;;;;;;;10.67;8.90;;;-8.60;99.90;;;;;;5094547;28;20572;-70
2022/08/16 06:05:55;;;;;;;12.03;8.83;;;-9.90;99.90;;;;;;5094544;28;20174;-67
2022/08/16 06:08:21;;;;;;;9.50;8.60;;;-10.40;99.90;;;;;;5091846;28;20217;-67
2022/08/16 06:10:47;;;;;;;9.57;8.87;;;-11.90;99.90;;;;;;5092889;28;20190;-69
2022/08/16 06:13:13;;;;;;;11.03;9.93;;;-9.30;99.90;;;;;;5084156;28;20215;-67
2022/08/16 06:15:38;;;;;;;10.43;9.20;;;-8.40;99.90;;;;;;5078949;28;20574;-67
2022/08/16 06:18:04;;;;;;;12.13;9.37;;;-7.90;99.90;;;;;;5090004;28;20200;-71
2022/08/16 06:20:30;;;;;;;11.37;8.80;;;-7.30;99.90;;;;;;5079247;28;20483;-67
2022/08/16 06:22:57;;;;;;;10.87;9.97;;;-7.10;99.90;;;;;;5078366;28;20630;-68
2022/08/16 06:25:25;;;;;;;10.63;9.47;;;-7.20;99.90;;;;;;5079009;28;20187;-71
2022/08/16 06:27:51;;;;;;;11.67;9.37;;;-7.10;99.90;;;;;;5080046;28;20185;-71
2022/08/16 06:30:18;;;;;;;14.47;9.33;;;-6.20;99.90;;;;;;5079325;28;20183;-74
2022/08/16 06:32:44;;;;;;;14.03;9.77;;;-5.60;99.90;;;;;;5079547;28;20187;-69
2022/08/16 06:35:10;;;;;;;11.03;10.03;;;-4.80;99.90;;;;;;5080642;28;20189;-67
2022/08/16 06:37:36;;;;;;;10.13;9.13;;;-4.40;99.90;;;;;;5078505;28;20207;-67
2022/08/16 06:40:03;;;;;;;9.07;8.27;;;-5.30;99.90;;;;;;5078754;28;20187;-67
2022/08/16 06:42:29;;;;;;;9.40;8.57;;;-5.80;99.90;;;;;;5086457;28;20262;-68
2022/08/16 06:44:55;;;;;;;9.90;9.00;;;-5.00;99.90;;;;;;5079080;28;20270;-75
2022/08/16 06:47:20;;;;;;;8.27;7.67;;;-6.00;99.90;;;;;;5078228;28;20860;-73
2022/08/16 06:49:46;;;;;;;11.10;8.60;;;-5.20;99.90;;;;;;5078727;28;20211;-75
2022/08/16 06:52:12;;;;;;;9.43;8.40;;;-4.30;99.90;;;;;;5079179;28;20179;-73
2022/08/16 06:54:38;;;;;;;9.57;8.47;;;-3.90;99.90;;;;;;5081789;28;20274;-76
2022/08/16 06:57:05;;;;;;;9.77;8.07;;;-4.70;99.90;;;;;;5079436;28;20236;-77
2022/08/16 06:59:31;;;;;;;9.03;8.33;;;-7.00;99.90;;;;;;5079329;28;20200;-77
2022/08/16 07:01:58;;;;;;;9.70;8.40;;;-6.80;99.90;;;;;;5079348;28;20540;-78
2022/08/16 07:04:24;;;;;;;9.87;8.97;;;-6.20;99.90;;;;;;5079359;28;20181;-74
2022/08/16 07:06:50;;;;;;;12.10;7.00;;;-4.10;99.90;;;;;;5078652;28;20224;-75
2022/08/16 07:09:16;;;;;;;8.83;8.00;;;-8.60;99.90;;;;;;5078664;28;20211;-77
2022/08/16 07:11:43;;;;;;;7.30;6.47;;;-6.50;99.90;;;;;;5078436;28;20215;-73
2022/08/16 07:14:09;;;;;;;7.67;6.87;;;-5.40;99.90;;;;;;5086430;28;20270;-77
2022/08/16 07:16:34;;;;;;;8.30;7.50;;;-3.30;99.90;;;;;;5078684;28;20302;-77
2022/08/16 07:19:00;;;;;;;7.93;7.00;;;-4.70;99.90;;;;;;5077574;28;20183;-75
2022/08/16 07:21:27;;;;;;;7.90;6.47;;;-3.90;99.90;;;;;;5083111;28;20194;-78
2022/08/16 07:23:52;;;;;;;7.37;6.87;;;-4.10;99.90;;;;;;5079042;28;20248;-76
2022/08/16 07:26:21;;;;;;;6.10;5.70;;;-3.60;99.90;;;;;;5078861;28;20183;-72
2022/08/16 07:28:47;;;;;;;7.40;6.23;;;-1.10;99.90;;;;;;5078313;28;20242;-73
2022/08/16 07:31:14;;;;;;;6.50;5.90;;;-2.40;99.90;;;;;;5077881;28;20259;-73
2022/08/16 07:33:40;;;;;;;6.50;5.90;;;-2.20;99.90;;;;;;5077777;28;20179;-76
2022/08/16 07:36:08;;;;;;;7.60;6.90;;;-2.00;99.90;;;;;;5077944;28;20210;-67
2022/08/16 07:38:34;;;;;;;8.40;6.83;;;-3.10;99.90;;;;;;5077078;28;20581;-68
2022/08/16 07:41:00;;;;;;;8.83;5.43;;;-3.30;99.90;;;;;;5079025;28;20215;-67
2022/08/16 07:43:27;;;;;;;5.63;5.10;;;-6.10;99.90;;;;;;5077775;28;20476;-72
2022/08/16 07:45:53;;;;;;;6.20;5.63;;;-1.80;99.90;;;;;;5078007;28;20551;-75
2022/08/16 07:48:20;;;;;;;7.17;5.90;;;-0.80;99.90;;;;;;5084834;28;20274;-73
2022/08/16 07:50:46;;;;;;;9.37;5.53;;;0.90;99.90;;;;;;5077357;28;20265;-72
2022/08/16 07:53:12;;;;;;;17.23;5.23;;;0.80;99.90;;;;;;5076933;28;20195;-73
2022/08/16 07:55:39;;;;;;;18.57;6.17;;;0.10;99.90;;;;;;5078157;28;20186;-71
2022/08/16 07:58:04;;;;;;;12.07;4.90;;;0.40;99.90;;;;;;5078371;28;20183;-71
2022/08/16 08:00:32;;;;;;;5.60;5.07;;;1.10;99.80;;;;;;5077840;28;20182;-70
2022/08/16 08:02:59;;;;;;;4.90;4.50;;;0.40;99.30;;;;;;5077474;28;20179;-71
2022/08/16 08:05:26;;;;;;;6.63;4.40;;;1.40;97.90;;;;;;5091520;28;20183;-73
2022/08/16 08:07:53;;;;;;;6.43;5.13;;;2.20;98.20;;;;;;5077156;28;20195;-68
2022/08/16 08:10:20;;;;;;;7.97;4.67;;;1.50;97.30;;;;;;5083700;28;20183;-68
2022/08/16 08:12:51;;;;;;;7.13;4.73;;;0.90;97.30;;;;;;5077749;28;20457;-68
2022/08/16 08:15:18;;;;;;;5.13;4.73;;;0.80;97.70;;;;;;5077494;28;20219;-67
2022/08/16 08:17:44;;;;;;;6.17;4.07;;;-0.90;96.50;;;;;;5077356;28;20633;-67
2022/08/16 08:20:15;;;;;;;4.70;4.10;;;0.80;96.10;;;;;;5076997;28;20183;-70
2022/08/16 08:22:47;;;;;;;4.43;4.13;;;-3.00;94.10;;;;;;5077051;28;20615;-68
2022/08/16 08:25:14;;;;;;;4.60;4.20;;;-1.30;94.70;;;;;;5078155;28;20175;-69
2022/08/16 08:27:41;;;;;;;6.03;4.10;;;-2.50;93.30;;;;;;5077497;28;20285;-69
2022/08/16 08:30:09;;;;;;;5.00;4.60;;;-1.90;93.70;;;;;;5076937;28;20218;-67
2022/08/16 08:32:34;;;;;;;5.57;4.10;;;-4.20;93.00;;;;;;5077099;28;20214;-66
2022/08/16 08:35:01;;;;;;;4.00;3.73;;;-4.90;92.60;;;;;;5076553;28;20222;-68
2022/08/16 08:37:26;;;;;;;5.43;3.80;;;-4.70;92.50;;;;;;5076136;28;20199;-66
2022/08/16 08:39:53;;;;;;;5.30;4.90;;;-8.80;91.60;;;;;;5076082;28;20201;-68
2022/08/16 08:42:19;;;;;;;4.43;4.03;;;-5.30;91.90;;;;;;5076851;28;20495;-68
2022/08/16 08:44:44;;;;;;;3.50;3.27;;;-11.40;89.40;;;;;;5076803;28;20185;-68
2022/08/16 08:47:10;;;;;;;7.10;3.37;;;-11.30;89.60;;;;;;5077494;28;20186;-67
2022/08/16 08:49:36;;;;;;;4.87;3.83;;;-18.20;84.10;;;;;;5075888;28;20214;-67
2022/08/16 08:52:04;;;;;;;4.27;3.30;;;-19.50;81.50;;;;;;5082661;28;20190;-67
2022/08/16 08:54:30;;;;;;;5.77;3.80;;;-29.10;74.70;;;;;;5076616;28;20601;-68
2022/08/16 08:56:56;;;;;;;4.23;3.93;;;-40.00;68.20;;;;;;5076564;28;20203;-67
2022/08/16 08:59:22;;;;;;;4.90;4.03;;;-40.00;69.00;;;;;;5076377;28;20248;-70
2022/08/16 09:01:49;;;;;;;4.63;4.27;;;-34.60;72.20;;;;;;5075787;28;20270;-72
2022/08/16 09:04:16;;;;;;;4.03;3.63;;;-24.40;78.50;;;;;;5076834;28;20248;-67
2022/08/16 09:06:42;;;;;;;4.77;4.37;;;-23.80;80.30;;;;;;5076946;28;20467;-73
2022/08/16 09:09:08;;;;;;;5.10;3.67;;;-32.00;75.50;;;;;;5077098;28;20376;-73
2022/08/16 09:11:36;;;;;;;10.10;4.53;;;-40.00;69.90;;;;;;5077588;28;20253;-75
2022/08/16 09:14:03;;;;;;;4.60;4.20;;;-40.00;70.20;;;;;;5076650;28;20290;-69
2022/08/16 09:16:29;;;;;;;6.17;4.37;;;-40.00;69.50;;;;;;5076942;28;20242;-72
2022/08/16 09:18:54;;;;;;;4.90;4.57;;;-40.00;68.60;;;;;;5075977;28;20214;-72
2022/08/16 09:21:20;;;;;;;6.17;4.77;;;-40.00;68.60;;;;;;5076386;28;20512;-73
2022/08/16 09:23:46;;;;;;;5.47;4.70;;;-40.00;69.80;;;;;;5075840;28;20500;-67
2022/08/16 09:26:16;;;;;;;4.00;3.80;;;-40.00;68.70;;;;;;5076240;28;20187;-69
2022/08/16 09:28:44;;;;;;;5.07;4.60;;;-40.00;68.20;;;;;;5075688;28;20582;-75
2022/08/16 09:31:15;;;;;;;7.83;5.00;;;-40.00;68.30;;;;;;5076898;28;20190;-70
2022/08/16 09:33:42;;;;;;;14.10;7.03;;;-40.00;68.20;;;;;;5076616;28;20266;-69
2022/08/16 09:36:09;;;;;;;8.30;5.43;;;-40.00;69.80;;;;;;5075901;28;20229;-68
2022/08/16 09:38:37;;;;;;;7.43;6.47;;;-40.00;71.60;;;;;;5076095;28;20190;-67
2022/08/16 09:41:06;;;;;;;5.77;5.10;;;-34.50;76.40;;;;;;5076154;28;20209;-67
2022/08/16 09:43:33;;;;;;;9.03;4.77;;;-37.60;75.50;;;;;;5076177;28;20179;-67
2022/08/16 09:46:00;;;;;;;7.37;4.70;;;-33.50;77.80;;;;;;5076012;28;20270;-68
2022/08/16 09:48:27;;;;;;;8.93;5.90;;;-40.00;72.20;;;;;;5082167;28;20183;-67
2022/08/16 09:50:53;;;;;;;10.90;5.33;;;-36.10;75.30;;;;;;5081508;28;20199;-68
2022/08/16 09:53:22;;;;;;;7.53;4.93;;;-33.40;77.60;;;;;;5076074;28;20659;-68
2022/08/16 09:55:51;;;;;;;8.07;5.27;;;-40.00;73.30;;;;;;5074009;28;20187;-68
2022/08/16 09:58:22;;;;;;;6.50;6.00;;;-38.50;73.70;;;;;;5075908;28;20186;-66
2022/08/16 10:00:49;;;;;;;5.67;5.23;;;-40.00;72.90;;;;;;5076468;28;20171;-66
2022/08/16 10:03:16;;;;;;;6.77;5.97;;;-33.20;77.80;;;;;;5080339;28;20622;-67
2022/08/16 10:05:42;;;;;;;7.10;6.50;;;-40.00;73.50;;;;;;5075954;28;20213;-66
2022/08/16 10:08:08;;;;;;;9.83;5.33;;;-40.00;73.00;;;;;;5079568;28;20195;-67
2022/08/16 10:10:34;;;;;;;8.20;5.97;;;-27.00;82.70;;;;;;5088455;28;20193;-67
2022/08/16 10:13:13;;;;;;;8.40;5.50;;;-40.00;74.30;;;;;;5078291;28;20187;-67
2022/08/16 10:15:45;;;;;;;14.37;7.00;;;-40.00;74.80;;;;;;5080191;28;20179;-68
2022/08/16 10:18:12;;;;;;;6.33;5.20;;;-40.00;72.40;;;;;;5086953;28;20183;-69
2022/08/16 10:20:42;;;;;;;6.13;5.63;;;-40.00;71.80;;;;;;5079467;28;20482;-67
2022/08/16 10:23:10;;;;;;;9.03;6.80;;;-40.00;73.10;;;;;;5080540;28;20214;-68
2022/08/16 10:25:42;;;;;;;6.50;6.00;;;-40.00;70.90;;;;;;5079435;28;20179;-67
2022/08/16 10:28:08;;;;;;;7.13;5.03;;;-40.00;70.50;;;;;;5078688;28;20176;-67
2022/08/16 10:30:35;;;;;;;5.70;5.20;;;-40.00;71.30;;;;;;5078430;28;20187;-68
2022/08/16 10:33:02;;;;;;;5.10;4.53;;;-40.00;70.90;;;;;;5079166;28;20183;-67
2022/08/16 10:35:28;;;;;;;6.73;6.23;;;-40.00;72.80;;;;;;5081329;28;20198;-69
2022/08/16 10:37:53;;;;;;;6.43;5.43;;;-40.00;70.60;;;;;;5079475;28;20211;-68
2022/08/16 10:40:20;;;;;;;7.20;6.47;;;-40.00;70.40;;;;;;5079637;28;20183;-66
2022/08/16 10:42:46;;;;;;;7.20;5.67;;;-40.00;71.30;;;;;;5079046;28;20188;-66
2022/08/16 10:45:12;;;;;;;8.17;5.53;;;-40.00;72.20;;;;;;5085790;28;20179;-67
2022/08/16 10:47:38;;;;;;;7.23;6.53;;;-40.00;71.80;;;;;;5078922;28;20198;-67
2022/08/16 10:50:05;;;;;;;7.60;6.90;;;-40.00;69.70;;;;;;5078847;28;20214;-66
2022/08/16 10:52:32;;;;;;;17.47;6.67;;;-40.00;68.20;;;;;;5079411;28;20187;-66
2022/08/16 10:54:59;;;;;;;7.57;5.23;;;-40.00;66.70;;;;;;5085889;28;20184;-66
2022/08/16 10:57:26;;;;;;;5.87;5.10;;;-40.00;66.80;;;;;;5079024;28;20345;-67
2022/08/16 10:59:52;;;;;;;6.57;5.97;;;-40.00;66.30;;;;;;5078837;28;20757;-67
2022/08/16 11:02:19;;;;;;;5.20;4.80;;;-40.00;65.60;;;;;;5079253;28;20286;-67
2022/08/16 11:04:45;;;;;;;6.17;5.67;;;-40.00;67.30;;;;;;5079808;28;20179;-66
2022/08/16 11:07:11;;;;;;;7.43;4.83;;;-40.00;65.70;;;;;;5078598;28;20262;-68
2022/08/16 11:09:38;;;;;;;5.87;5.33;;;-40.00;65.40;;;;;;5077986;28;20545;-70
2022/08/16 11:12:05;;;;;;;8.43;6.20;;;-40.00;64.60;;;;;;5077911;28;20219;-67
2022/08/16 11:14:32;;;;;;;6.87;5.57;;;-40.00;62.60;;;;;;5078424;28;20179;-68
2022/08/16 11:17:00;;;;;;;6.63;6.03;;;-40.00;63.20;;;;;;5083496;28;20199;-67
2022/08/16 11:19:28;;;;;;;9.17;5.57;;;-40.00;61.70;;;;;;5079004;28;20324;-69
2022/08/16 11:21:54;;;;;;;5.77;4.90;;;-40.00;62.40;;;;;;5079179;28;20180;-70
2022/08/16 11:24:21;;;;;;;6.17;5.57;;;-40.00;62.40;;;;;;5077710;28;20182;-72
2022/08/16 11:26:47;;;;;;;6.63;5.40;;;-40.00;60.10;;;;;;5077850;28;20225;-66
2022/08/16 11:29:13;;;;;;;7.10;5.37;;;-40.00;60.30;;;;;;5077882;28;20186;-67
2022/08/16 11:31:39;;;;;;;5.73;4.73;;;-40.00;60.50;;;;;;5078149;28;20190;-65
2022/08/16 11:34:04;;;;;;;15.23;5.23;;;-40.00;58.10;;;;;;5078163;28;20648;-67
2022/08/16 11:36:30;;;;;;;7.50;4.83;;;-40.00;57.10;;;;;;5079189;28;20329;-67
2022/08/16 11:38:58;;;;;;;6.10;5.07;;;-40.00;58.40;;;;;;5077975;28;20195;-71
2022/08/16 11:41:25;;;;;;;6.57;5.83;;;-40.00;57.30;;;;;;5078413;28;20533;-68
2022/08/16 11:43:51;;;;;;;5.43;5.03;;;-40.00;56.70;;;;;;5076335;28;20183;-70
2022/08/16 11:46:16;;;;;;;5.17;4.63;;;-40.00;56.80;;;;;;5078073;28;20593;-68
2022/08/16 11:48:44;;;;;;;5.73;4.73;;;28.70;94.80;;;;;;5092736;28;20211;-67
2022/08/16 11:51:11;;;;;;;4.60;4.17;;;28.90;94.90;;;;;;5078705;28;20206;-67
2022/08/16 11:53:38;;;;;;;4.27;4.00;;;29.20;94.10;;;;;;5077634;28;20266;-67
2022/08/16 11:56:05;;;;;;;4.93;4.57;;;29.50;94.00;;;;;;5077387;28;20207;-68
2022/08/16 11:58:31;;;;;;;5.83;5.20;;;30.00;93.30;;;;;;5083904;28;20187;-69
2022/08/16 12:00:57;;;;;;;6.17;4.93;;;30.00;93.10;;;;;;5077046;28;20198;-67
2022/08/16 12:03:26;;;;;;;5.00;4.53;;;30.20;93.20;;;;;;5077926;28;20487;-69
2022/08/16 12:05:52;;;;;;;5.10;4.80;;;30.10;93.00;;;;;;5077811;28;20172;-68
2022/08/16 12:08:19;;;;;;;5.70;4.87;;;29.70;93.20;;;;;;5076414;28;20206;-68
2022/08/16 12:10:45;;;;;;;6.53;5.10;;;30.00;93.40;;;;;;5078220;28;20184;-67
2022/08/16 12:13:12;;;;;;;6.65;5.45;;;30.10;93.40;;;;;;5078013;28;20182;-69
2022/08/16 12:15:39;;;;;;;5.07;4.68;;;29.60;92.00;;;;;;5076880;28;20179;-69
2022/08/16 12:18:06;;;;;;;7.15;4.82;;;29.90;92.10;;;;;;5077138;28;20620;-69
2022/08/16 12:20:34;;;;;;;6.28;4.85;;;27.90;89.80;;;;;;5076202;28;20172;-68
2022/08/16 12:23:01;;;;;;;7.05;5.10;;;28.50;90.30;;;;;;5077488;28;20179;-68
2022/08/16 12:25:29;;;;;;;6.80;5.28;;;30.20;91.00;;;;;;5077712;28;20173;-68
2022/08/16 12:27:55;;;;;;;5.95;5.13;;;30.20;91.10;;;;;;5077051;28;20625;-67
2022/08/16 12:30:28;;;;;;;5.80;4.32;;;30.50;91.00;;;;;;5077542;28;20191;-68
2022/08/16 12:33:00;;;;;;;4.35;3.95;;;30.30;90.80;;;;;;5076848;28;20274;-71
2022/08/16 12:35:26;;;;;;;5.35;4.90;;;30.50;90.60;;;;;;5090090;28;20591;-67
2022/08/16 12:37:52;;;;;;;4.72;4.43;;;29.60;89.50;;;;;;5077013;28;20245;-69
2022/08/16 12:40:21;;;;;;;17.95;6.43;;;30.40;90.30;;;;;;5076476;28;20211;-67
2022/08/16 12:42:48;;;;;;;7.65;5.20;;;30.20;91.30;;;;;;5088125;28;20594;-72